Terminal Aerodrome Forecast
Issued by NWS Atlanta, GA

Home | Current Version | Previous Version | Text Only | Print | Product List | Glossary On
Versions: 1 2 3 4 5 6 7 8 9 10 11 12 13 14 15 16 17 18 19 20 21 22 23 24 25 26 27 28 29 30 31 32 33 34 35 36 37 38 39 40 41 42 43 44
000
FTUS42 KFFC 251737
TAFATL
TAF
KATL 251737Z 2518/2624 33009KT P6SM SCT120 BKN250
     FM260100 32006KT P6SM OVC080
     FM260400 32009KT P6SM -RA OVC030
     FM260700 31008KT 6SM -RA BR OVC015
     FM261200 30007KT 6SM BR OVC025
     FM261500 30008KT P6SM SCT035
     FM262100 26007KT P6SM SCT250=

USA.gov is the U.S. government's official web portal to all federal, state and local government web resources and services.